Time;durP1;ratioP1;P1;durP2;ratioP2;P2;SDS_P1;SDS_P2;PMS_P1;PMS_P2;Temp;Humidity;BMP_temperature;BMP_pressure;BME280_temperature;BME280_humidity;BME280_pressure;Samples;Min_cycle;Max_cycle;Signal;HPM_P1;HPM_P2
2023/07/02 00:02:11;;;;;;;7.43;6.70;;;15.90;99.90;;;;;;6247039;22;20019;-32
2023/07/02 00:04:37;;;;;;;8.77;6.30;;;15.90;99.90;;;;;;6247502;23;20312;-32
2023/07/02 00:07:04;;;;;;;9.50;5.88;;;15.90;99.90;;;;;;6220090;23;20024;-32
2023/07/02 00:09:30;;;;;;;7.13;6.32;;;15.90;99.90;;;;;;6247053;23;20017;-32
2023/07/02 00:11:56;;;;;;;8.60;6.43;;;15.90;99.90;;;;;;6247341;22;20099;-32
2023/07/02 00:14:22;;;;;;;8.85;6.38;;;15.90;99.90;;;;;;6247313;23;20008;-32
2023/07/02 00:16:47;;;;;;;10.38;6.75;;;15.80;99.90;;;;;;6247296;23;20018;-32
2023/07/02 00:19:16;;;;;;;7.65;6.20;;;15.80;99.90;;;;;;6246733;23;20016;-32
2023/07/02 00:21:42;;;;;;;9.43;6.72;;;15.80;99.90;;;;;;6247181;22;20012;-32
2023/07/02 00:24:11;;;;;;;8.13;6.18;;;15.80;99.90;;;;;;6220578;23;20019;-32
2023/07/02 00:26:38;;;;;;;7.30;6.47;;;15.70;99.90;;;;;;6247493;23;20447;-31
2023/07/02 00:29:05;;;;;;;7.82;6.38;;;15.70;99.90;;;;;;6246850;23;20048;-32
2023/07/02 00:31:33;;;;;;;8.75;6.25;;;15.60;99.90;;;;;;6218764;23;20016;-34
2023/07/02 00:34:00;;;;;;;9.75;6.63;;;15.60;99.90;;;;;;6245633;23;20460;-33
2023/07/02 00:36:26;;;;;;;9.25;7.15;;;15.60;99.90;;;;;;6246500;23;20063;-33
2023/07/02 00:38:52;;;;;;;7.20;6.32;;;15.50;99.90;;;;;;6246246;23;20023;-33
2023/07/02 00:41:18;;;;;;;9.30;6.68;;;15.50;99.90;;;;;;6246400;23;20451;-34
2023/07/02 00:43:44;;;;;;;8.50;6.60;;;15.50;99.90;;;;;;6245084;22;20086;-33
2023/07/02 00:46:21;;;;;;;9.65;6.88;;;15.60;99.90;;;;;;6245719;23;20083;-33
2023/07/02 00:48:52;;;;;;;9.90;6.22;;;15.60;99.90;;;;;;6218479;23;20092;-33
2023/07/02 00:51:20;;;;;;;8.25;6.60;;;15.50;99.90;;;;;;6246115;23;20035;-33
2023/07/02 00:53:47;;;;;;;8.63;6.22;;;15.50;99.90;;;;;;6245471;22;20327;-34
2023/07/02 00:56:13;;;;;;;9.63;6.43;;;15.50;99.90;;;;;;6245727;23;20082;-33
2023/07/02 00:58:48;;;;;;;9.63;6.97;;;15.50;99.90;;;;;;6246024;23;20012;-33
2023/07/02 01:01:22;;;;;;;7.47;6.50;;;15.40;99.90;;;;;;6246116;23;20070;-33
2023/07/02 01:04:04;;;;;;;8.85;7.13;;;15.40;99.90;;;;;;6218680;23;20080;-33
2023/07/02 01:06:34;;;;;;;9.15;6.25;;;15.40;99.90;;;;;;6245591;23;20340;-34
2023/07/02 01:09:04;;;;;;;8.77;7.32;;;15.40;99.90;;;;;;6246560;23;20013;-33
2023/07/02 01:11:44;;;;;;;9.60;6.95;;;15.40;99.90;;;;;;6245359;23;20019;-34
2023/07/02 01:14:12;;;;;;;11.48;7.25;;;15.30;99.90;;;;;;6246733;23;20015;-33
2023/07/02 01:16:42;;;;;;;8.05;6.40;;;15.30;99.90;;;;;;6246244;23;20016;-33
2023/07/02 01:19:13;;;;;;;9.63;6.80;;;15.30;99.90;;;;;;6246455;23;20023;-33
2023/07/02 01:21:39;;;;;;;8.93;7.05;;;15.30;99.90;;;;;;6218229;22;20008;-33
2023/07/02 01:24:26;;;;;;;8.30;6.75;;;15.20;99.90;;;;;;6195483;23;20104;-86
2023/07/02 01:26:51;;;;;;;10.13;7.18;;;15.20;99.90;;;;;;6156364;23;20017;-86
2023/07/02 01:29:20;;;;;;;9.38;6.88;;;15.10;99.90;;;;;;6155897;23;20020;-86
2023/07/02 01:31:47;;;;;;;13.77;7.53;;;15.10;99.90;;;;;;6154667;23;20013;-86
2023/07/02 01:34:13;;;;;;;9.10;6.70;;;15.00;99.90;;;;;;6155605;23;20346;-86
2023/07/02 01:36:40;;;;;;;7.28;6.15;;;15.00;99.90;;;;;;6158042;23;20013;-86
2023/07/02 01:39:06;;;;;;;8.43;6.53;;;15.00;99.90;;;;;;6132957;23;20056;-86
2023/07/02 01:41:38;;;;;;;9.40;6.95;;;14.90;99.90;;;;;;6156134;23;20010;-86
2023/07/02 01:44:04;;;;;;;8.80;7.03;;;14.80;99.90;;;;;;6156702;23;20013;-86
2023/07/02 01:46:29;;;;;;;10.60;7.20;;;14.80;99.90;;;;;;6131603;23;20028;-86
2023/07/02 01:49:01;;;;;;;9.02;6.80;;;14.80;99.90;;;;;;6156592;23;20021;-86
2023/07/02 01:51:29;;;;;;;13.70;7.38;;;14.70;99.90;;;;;;6158550;23;20072;-86
2023/07/02 01:53:59;;;;;;;10.25;7.75;;;14.70;99.90;;;;;;6156759;23;20472;-86
2023/07/02 01:56:28;;;;;;;10.68;6.63;;;14.60;99.90;;;;;;6156953;23;20017;-86
2023/07/02 01:58:54;;;;;;;11.60;6.53;;;14.60;99.90;;;;;;6157174;23;20020;-86
2023/07/02 02:01:20;;;;;;;10.48;7.35;;;14.50;99.90;;;;;;6157014;23;20016;-86
2023/07/02 02:03:46;;;;;;;12.25;6.97;;;14.50;99.90;;;;;;6156815;23;20413;-86
2023/07/02 02:06:11;;;;;;;13.02;6.50;;;14.50;99.90;;;;;;6132365;23;20013;-86
2023/07/02 02:08:37;;;;;;;11.30;6.95;;;14.40;99.90;;;;;;6156747;23;20096;-86
2023/07/02 02:11:03;;;;;;;12.57;6.88;;;14.40;99.90;;;;;;6132042;23;20079;-86
2023/07/02 02:13:28;;;;;;;11.02;6.97;;;14.30;99.90;;;;;;6156731;23;20017;-86
2023/07/02 02:15:55;;;;;;;17.90;7.53;;;14.30;99.90;;;;;;6156223;23;20064;-86
2023/07/02 02:18:20;;;;;;;10.80;7.60;;;14.30;99.90;;;;;;6157280;23;20052;-86
2023/07/02 02:20:46;;;;;;;13.15;7.10;;;14.20;99.90;;;;;;6156131;23;20006;-86
2023/07/02 02:23:12;;;;;;;13.80;7.18;;;14.20;99.90;;;;;;6156475;23;20061;-86
2023/07/02 02:25:41;;;;;;;16.20;7.95;;;14.10;99.90;;;;;;6156899;23;20080;-86
2023/07/02 02:28:06;;;;;;;14.30;7.32;;;14.10;99.90;;;;;;6156731;23;20013;-86
2023/07/02 02:30:32;;;;;;;17.35;9.00;;;14.00;99.90;;;;;;6132364;23;20020;-86
2023/07/02 02:32:58;;;;;;;22.83;8.10;;;14.00;99.90;;;;;;6130603;23;20009;-86
2023/07/02 02:35:23;;;;;;;17.42;8.32;;;14.00;99.90;;;;;;6156172;23;20469;-86
2023/07/02 02:37:49;;;;;;;21.48;8.38;;;13.90;99.90;;;;;;6156436;23;20346;-85
2023/07/02 02:40:15;;;;;;;17.73;7.78;;;13.90;99.90;;;;;;6155908;23;20021;-86
2023/07/02 02:42:40;;;;;;;21.17;8.10;;;13.90;99.90;;;;;;6131976;23;20023;-86
2023/07/02 02:45:07;;;;;;;16.77;7.95;;;13.90;99.90;;;;;;6132166;23;20353;-86
2023/07/02 02:47:32;;;;;;;16.42;8.35;;;13.90;99.90;;;;;;6156862;23;20052;-86
2023/07/02 02:49:59;;;;;;;17.35;7.72;;;13.80;99.90;;;;;;6157655;23;20381;-86
2023/07/02 02:52:25;;;;;;;16.50;7.75;;;13.80;99.90;;;;;;6131695;23;20017;-87
2023/07/02 02:54:54;;;;;;;16.85;7.93;;;13.80;99.90;;;;;;6156865;23;20060;-86
2023/07/02 02:57:19;;;;;;;17.75;8.27;;;13.80;99.90;;;;;;6155771;23;20018;-86
2023/07/02 02:59:46;;;;;;;19.50;8.95;;;13.80;99.90;;;;;;6155474;23;20017;-86
2023/07/02 03:02:11;;;;;;;17.65;8.57;;;13.80;99.90;;;;;;6156520;23;20453;-86
2023/07/02 03:04:41;;;;;;;15.35;7.53;;;13.70;99.90;;;;;;6156865;23;20053;-86
2023/07/02 03:07:09;;;;;;;18.60;8.77;;;13.70;99.90;;;;;;6156603;23;20013;-86
2023/07/02 03:09:35;;;;;;;16.60;7.88;;;13.70;99.90;;;;;;6131429;23;20014;-86
2023/07/02 03:12:02;;;;;;;18.33;8.68;;;13.60;99.90;;;;;;6155567;23;20022;-86
2023/07/02 03:14:28;;;;;;;16.35;8.38;;;13.60;99.90;;;;;;6131524;23;20036;-86
2023/07/02 03:16:54;;;;;;;16.05;7.80;;;13.60;99.90;;;;;;6156888;23;20013;-86
2023/07/02 03:19:20;;;;;;;15.75;7.68;;;13.50;99.90;;;;;;6156550;23;20374;-86
2023/07/02 03:21:45;;;;;;;16.50;8.30;;;13.50;99.90;;;;;;6131384;23;20013;-86
2023/07/02 03:24:13;;;;;;;18.40;8.05;;;13.50;99.90;;;;;;6155903;23;20021;-86
2023/07/02 03:26:42;;;;;;;21.77;9.10;;;13.50;99.90;;;;;;6160989;23;20017;-86
2023/07/02 03:29:09;;;;;;;18.58;8.60;;;13.50;99.90;;;;;;6171246;23;20014;-86
2023/07/02 03:31:34;;;;;;;16.15;8.63;;;13.40;99.90;;;;;;6159338;23;20013;-86
2023/07/02 03:34:04;;;;;;;24.80;9.10;;;13.40;99.90;;;;;;6159776;23;20382;-86
2023/07/02 03:36:30;;;;;;;15.52;8.82;;;13.40;99.90;;;;;;6159606;23;20060;-86
2023/07/02 03:38:55;;;;;;;15.68;8.65;;;13.40;99.90;;;;;;6132553;23;20017;-86
2023/07/02 03:41:21;;;;;;;20.35;8.20;;;13.40;99.90;;;;;;6156660;23;20573;-86
2023/07/02 03:43:49;;;;;;;20.10;8.88;;;13.40;99.90;;;;;;6133404;23;20032;-86
2023/07/02 03:46:15;;;;;;;19.73;8.70;;;13.40;99.90;;;;;;6156234;23;20014;-86
2023/07/02 03:48:44;;;;;;;18.08;8.93;;;13.30;99.90;;;;;;6131306;23;20402;-86
2023/07/02 03:51:12;;;;;;;20.38;9.50;;;13.30;99.90;;;;;;6155239;23;20034;-86
2023/07/02 03:53:38;;;;;;;22.15;9.25;;;13.30;99.90;;;;;;6131667;23;20014;-86
2023/07/02 03:56:04;;;;;;;20.42;9.75;;;13.40;99.90;;;;;;6156104;23;20016;-86
2023/07/02 03:58:29;;;;;;;17.55;9.68;;;13.30;99.90;;;;;;6130761;23;20040;-86
2023/07/02 04:00:55;;;;;;;20.35;9.13;;;13.30;99.90;;;;;;6155652;23;20020;-86
2023/07/02 04:03:21;;;;;;;19.73;8.95;;;13.30;99.90;;;;;;6155628;23;20346;-86
2023/07/02 04:05:46;;;;;;;22.40;8.93;;;13.30;99.90;;;;;;6155986;23;20017;-86
2023/07/02 04:08:12;;;;;;;21.38;8.43;;;13.30;99.90;;;;;;6131244;23;20071;-86
2023/07/02 04:10:38;;;;;;;19.75;9.02;;;13.30;99.90;;;;;;6155268;23;20017;-86
2023/07/02 04:13:04;;;;;;;17.23;8.88;;;13.30;99.90;;;;;;6155369;23;20014;-86
2023/07/02 04:15:29;;;;;;;21.42;8.80;;;13.40;99.90;;;;;;6155817;23;20010;-86
2023/07/02 04:17:55;;;;;;;20.60;9.70;;;13.40;99.90;;;;;;6155399;23;20048;-86
2023/07/02 04:20:21;;;;;;;22.00;10.10;;;13.50;99.90;;;;;;6155533;23;20024;-86
2023/07/02 04:22:47;;;;;;;23.75;9.25;;;13.50;99.90;;;;;;6131001;23;20021;-86
2023/07/02 04:25:16;;;;;;;19.25;8.48;;;13.50;99.90;;;;;;6156883;23;20013;-86
2023/07/02 04:27:42;;;;;;;21.85;9.63;;;13.60;99.90;;;;;;6157849;23;20028;-86
2023/07/02 04:30:10;;;;;;;21.38;8.65;;;13.60;99.90;;;;;;6157779;23;20049;-86
2023/07/02 04:32:39;;;;;;;18.17;9.32;;;13.60;99.90;;;;;;6155790;23;20783;-86
2023/07/02 04:35:08;;;;;;;17.63;8.88;;;13.70;99.90;;;;;;6158352;23;20072;-86
2023/07/02 04:37:35;;;;;;;20.98;9.43;;;13.70;99.90;;;;;;6157015;23;20009;-86
2023/07/02 04:40:06;;;;;;;23.35;8.65;;;13.70;99.90;;;;;;6133860;23;20025;-86
2023/07/02 04:42:37;;;;;;;21.48;9.60;;;13.70;99.90;;;;;;6157221;23;20017;-87
2023/07/02 04:45:06;;;;;;;21.90;9.10;;;13.70;99.90;;;;;;6158367;23;20013;-87
2023/07/02 04:47:32;;;;;;;26.73;9.32;;;13.70;99.90;;;;;;6132844;23;20014;-87
2023/07/02 04:49:59;;;;;;;19.92;8.85;;;13.70;99.90;;;;;;6134127;23;20024;-86
2023/07/02 04:52:27;;;;;;;19.98;8.10;;;13.70;99.90;;;;;;6156508;23;20072;-87
2023/07/02 04:54:53;;;;;;;20.75;8.85;;;13.80;99.90;;;;;;6157613;23;20010;-87
2023/07/02 04:57:19;;;;;;;21.00;9.20;;;13.80;99.90;;;;;;6157859;23;20354;-86
2023/07/02 04:59:47;;;;;;;20.70;9.45;;;13.80;99.90;;;;;;6132678;23;20024;-86
2023/07/02 05:02:16;;;;;;;22.17;9.13;;;13.80;99.90;;;;;;6132827;23;20017;-87
2023/07/02 05:04:41;;;;;;;19.50;9.52;;;13.80;99.90;;;;;;6157969;23;20022;-86
2023/07/02 05:07:07;;;;;;;20.75;9.18;;;13.80;99.90;;;;;;6159460;23;20017;-86
2023/07/02 05:09:39;;;;;;;22.35;8.68;;;13.90;99.90;;;;;;6157876;23;20111;-87
2023/07/02 05:12:05;;;;;;;21.92;8.68;;;13.90;99.90;;;;;;6158277;23;20100;-87
2023/07/02 05:14:31;;;;;;;23.17;9.85;;;14.00;99.90;;;;;;6133616;23;20020;-86
2023/07/02 05:16:56;;;;;;;15.65;8.40;;;14.10;99.90;;;;;;6157955;23;20096;-86
2023/07/02 05:19:22;;;;;;;19.60;8.98;;;14.10;99.90;;;;;;6158645;23;20013;-87
2023/07/02 05:21:48;;;;;;;18.83;8.57;;;14.20;99.90;;;;;;6157042;23;20089;-86
2023/07/02 05:24:14;;;;;;;18.33;9.68;;;14.30;99.90;;;;;;6133639;23;20048;-87
2023/07/02 05:26:42;;;;;;;17.55;7.80;;;14.40;99.90;;;;;;6133942;23;20254;-86
2023/07/02 05:29:08;;;;;;;19.75;8.68;;;14.40;99.90;;;;;;6156501;23;20014;-86
2023/07/02 05:31:34;;;;;;;22.20;9.55;;;14.50;99.90;;;;;;6157178;23;20350;-86
2023/07/02 05:33:59;;;;;;;21.10;8.88;;;14.60;99.90;;;;;;6132712;23;20514;-86
2023/07/02 05:36:25;;;;;;;24.23;8.73;;;14.70;99.90;;;;;;6132128;23;20049;-86
2023/07/02 05:38:51;;;;;;;21.33;8.70;;;14.80;99.90;;;;;;6156181;23;20398;-85
2023/07/02 05:41:20;;;;;;;24.05;9.63;;;14.90;99.90;;;;;;6155639;23;20014;-87
2023/07/02 05:43:47;;;;;;;26.92;9.68;;;14.90;99.90;;;;;;6152241;23;20021;-86
2023/07/02 05:46:14;;;;;;;23.63;9.32;;;15.10;99.90;;;;;;6132293;23;20041;-86
2023/07/02 05:48:46;;;;;;;20.98;9.68;;;15.10;99.90;;;;;;6131426;23;20097;-87
2023/07/02 05:51:12;;;;;;;19.23;8.77;;;15.20;99.90;;;;;;6131972;23;20010;-86
2023/07/02 05:53:38;;;;;;;19.88;8.93;;;15.30;99.90;;;;;;6130308;23;20064;-87
2023/07/02 05:56:04;;;;;;;20.50;8.45;;;15.40;99.90;;;;;;6153317;23;20010;-86
2023/07/02 05:58:30;;;;;;;19.02;9.18;;;15.40;99.90;;;;;;6154731;23;20009;-86
2023/07/02 06:00:56;;;;;;;21.67;8.43;;;15.50;99.90;;;;;;6154472;23;20013;-85
2023/07/02 06:03:21;;;;;;;17.25;8.68;;;15.60;99.90;;;;;;6129795;23;20009;-87
2023/07/02 06:05:51;;;;;;;23.25;9.63;;;15.70;99.90;;;;;;6130698;23;20009;-86
2023/07/02 06:08:17;;;;;;;18.63;8.25;;;15.80;99.90;;;;;;6155215;23;20492;-87
2023/07/02 06:10:46;;;;;;;17.70;7.97;;;15.90;99.90;;;;;;6154959;23;20052;-86
2023/07/02 06:13:11;;;;;;;19.13;8.23;;;16.00;99.90;;;;;;6154212;23;20013;-87
2023/07/02 06:15:37;;;;;;;18.10;8.15;;;16.00;99.90;;;;;;6153990;23;20045;-86
2023/07/02 06:18:03;;;;;;;22.05;8.25;;;16.10;99.90;;;;;;6154514;23;20013;-86
2023/07/02 06:20:29;;;;;;;23.08;8.52;;;16.20;99.90;;;;;;6130209;23;20013;-87
2023/07/02 06:22:54;;;;;;;19.17;8.25;;;16.30;99.90;;;;;;6128575;23;20040;-87
2023/07/02 06:25:20;;;;;;;20.40;8.68;;;16.40;99.90;;;;;;6153677;23;20514;-87
2023/07/02 06:27:47;;;;;;;18.65;8.77;;;16.60;99.90;;;;;;6156596;23;20334;-86
2023/07/02 06:30:13;;;;;;;23.77;8.32;;;16.80;99.90;;;;;;6142761;23;20017;-87
2023/07/02 06:32:38;;;;;;;19.02;8.68;;;16.90;99.90;;;;;;6129802;23;20061;-87
2023/07/02 06:35:08;;;;;;;16.40;8.13;;;17.00;99.90;;;;;;6130087;23;20036;-88
2023/07/02 06:37:35;;;;;;;20.05;8.25;;;17.00;99.90;;;;;;6153514;23;20013;-87
2023/07/02 06:40:01;;;;;;;18.20;8.23;;;17.10;99.90;;;;;;6129212;23;20013;-81
2023/07/02 06:42:29;;;;;;;19.02;8.35;;;17.10;99.90;;;;;;6154150;23;20028;-87
2023/07/02 06:44:55;;;;;;;16.83;6.57;;;17.20;99.90;;;;;;6156566;23;20022;-85
2023/07/02 06:47:21;;;;;;;21.30;7.78;;;17.30;99.90;;;;;;6132575;23;20036;-86
2023/07/02 06:49:46;;;;;;;16.80;6.78;;;17.40;99.90;;;;;;6130635;23;20021;-87
2023/07/02 06:52:12;;;;;;;20.38;8.65;;;17.50;99.90;;;;;;6157197;23;20009;-86
2023/07/02 06:54:38;;;;;;;16.25;7.18;;;17.40;99.90;;;;;;6155617;23;20014;-84
2023/07/02 06:57:04;;;;;;;16.45;7.53;;;17.40;99.90;;;;;;6158001;23;20014;-86
2023/07/02 06:59:30;;;;;;;19.08;8.25;;;17.40;99.90;;;;;;6156119;23;20040;-81
2023/07/02 07:01:56;;;;;;;14.10;7.55;;;17.40;99.90;;;;;;6158612;23;20065;-83
2023/07/02 07:04:36;;;;;;;13.68;6.70;;;17.50;99.90;;;;;;6157413;23;20096;-86
2023/07/02 07:07:02;;;;;;;12.07;7.05;;;17.50;99.90;;;;;;6131687;23;20018;-85
2023/07/02 07:09:33;;;;;;;15.05;6.90;;;17.60;99.90;;;;;;6154707;23;20080;-85
2023/07/02 07:11:59;;;;;;;15.18;6.03;;;17.70;99.90;;;;;;6153913;23;20024;-88
2023/07/02 07:14:25;;;;;;;13.10;6.53;;;17.60;99.90;;;;;;6156258;23;20021;-88
2023/07/02 07:16:53;;;;;;;12.70;6.85;;;17.50;99.90;;;;;;6128273;23;20067;-87
2023/07/02 07:19:31;;;;;;;13.07;6.38;;;17.60;99.90;;;;;;6152253;23;20481;-87
2023/07/02 07:21:57;;;;;;;12.15;6.30;;;17.70;99.90;;;;;;6129568;23;20037;-87
2023/07/02 07:24:23;;;;;;;13.98;7.18;;;17.70;99.90;;;;;;6156993;23;20025;-85
2023/07/02 07:26:48;;;;;;;13.90;6.07;;;17.80;99.90;;;;;;6158507;23;20023;-87
2023/07/02 07:29:14;;;;;;;16.13;6.20;;;18.00;99.90;;;;;;6153664;23;20419;-86
2023/07/02 07:31:40;;;;;;;13.10;6.13;;;18.30;99.90;;;;;;6154297;23;20402;-86
2023/07/02 07:34:06;;;;;;;12.25;5.80;;;18.30;99.90;;;;;;6155008;23;20013;-86
2023/07/02 07:36:31;;;;;;;11.82;5.85;;;18.20;99.90;;;;;;6155150;23;20056;-85
2023/07/02 07:38:57;;;;;;;13.90;6.72;;;18.10;99.90;;;;;;6155302;23;20022;-86
2023/07/02 07:41:22;;;;;;;16.73;6.50;;;17.90;99.90;;;;;;6154612;23;20009;-86
2023/07/02 07:43:48;;;;;;;15.73;6.70;;;17.80;99.90;;;;;;6130469;23;20053;-87
2023/07/02 07:46:17;;;;;;;12.38;6.78;;;17.70;99.90;;;;;;6155816;23;20017;-86
2023/07/02 07:48:43;;;;;;;15.30;6.82;;;17.80;99.90;;;;;;6130217;23;20017;-86
2023/07/02 07:51:08;;;;;;;16.17;7.13;;;17.70;99.90;;;;;;6155069;23;20007;-86
2023/07/02 07:53:38;;;;;;;15.88;6.30;;;17.60;99.90;;;;;;6179738;23;20374;-87
2023/07/02 07:56:04;;;;;;;14.90;6.60;;;17.60;99.90;;;;;;6131401;23;20073;-87
2023/07/02 07:58:31;;;;;;;12.32;6.25;;;17.80;99.90;;;;;;6155130;23;20572;-86
2023/07/02 08:00:57;;;;;;;16.50;6.43;;;18.00;99.90;;;;;;6155157;23;20013;-87
2023/07/02 08:03:23;;;;;;;12.65;6.03;;;18.20;99.90;;;;;;6156893;23;20009;-87
2023/07/02 08:05:49;;;;;;;9.95;5.18;;;18.50;99.90;;;;;;6157062;23;20010;-87
2023/07/02 08:08:15;;;;;;;11.10;5.10;;;18.80;99.90;;;;;;6157336;23;20480;-87
2023/07/02 08:10:40;;;;;;;9.40;4.43;;;19.10;99.90;;;;;;6157150;23;20021;-86
2023/07/02 08:13:08;;;;;;;10.70;4.38;;;19.30;99.90;;;;;;6156267;23;20037;-86
2023/07/02 08:15:34;;;;;;;10.20;4.32;;;19.40;99.90;;;;;;6157519;23;20037;-86
2023/07/02 08:17:59;;;;;;;10.63;4.53;;;19.20;99.90;;;;;;6156040;23;20017;-86
2023/07/02 08:20:25;;;;;;;8.88;4.70;;;19.00;99.90;;;;;;6132656;23;20025;-85
2023/07/02 08:22:51;;;;;;;10.77;4.18;;;18.70;99.90;;;;;;6131539;23;20023;-87
2023/07/02 08:25:18;;;;;;;9.65;3.97;;;18.70;99.90;;;;;;6155987;23;20088;-86
2023/07/02 08:27:44;;;;;;;12.50;4.05;;;18.80;99.90;;;;;;6132157;23;20019;-86
2023/07/02 08:30:10;;;;;;;9.40;4.18;;;19.00;99.90;;;;;;6131639;23;20049;-87
2023/07/02 08:32:36;;;;;;;9.63;3.85;;;18.90;99.90;;;;;;6156649;23;20014;-86
2023/07/02 08:35:01;;;;;;;5.82;3.60;;;19.00;99.90;;;;;;6132460;23;20346;-87
2023/07/02 08:37:27;;;;;;;7.43;3.20;;;19.20;99.90;;;;;;6157306;23;20422;-87
2023/07/02 08:39:53;;;;;;;7.18;3.03;;;19.60;99.90;;;;;;6158874;23;20017;-86
2023/07/02 08:42:19;;;;;;;5.25;3.15;;;19.80;99.90;;;;;;6155775;23;20056;-86
2023/07/02 08:44:53;;;;;;;5.32;3.10;;;19.90;99.90;;;;;;6155774;23;20019;-86
2023/07/02 08:47:19;;;;;;;5.90;3.08;;;20.20;99.90;;;;;;6157486;23;20040;-85
2023/07/02 08:49:45;;;;;;;7.75;3.67;;;20.40;99.90;;;;;;6156209;23;20049;-87
2023/07/02 08:52:10;;;;;;;8.45;3.95;;;20.30;99.90;;;;;;6156149;23;20013;-87
2023/07/02 08:54:36;;;;;;;5.38;3.90;;;20.20;99.90;;;;;;6156236;23;20040;-88
2023/07/02 08:57:05;;;;;;;7.03;3.65;;;20.00;99.90;;;;;;6132755;23;20044;-85
2023/07/02 08:59:31;;;;;;;7.90;3.97;;;19.80;99.90;;;;;;6159334;23;20025;-85
2023/07/02 09:01:57;;;;;;;9.35;3.80;;;19.60;99.90;;;;;;6159047;23;20085;-85
2023/07/02 09:04:24;;;;;;;9.10;3.75;;;19.60;99.90;;;;;;6162134;23;20018;-84
2023/07/02 09:07:04;;;;;;;8.63;3.85;;;19.60;99.90;;;;;;6161431;23;20194;-84
2023/07/02 09:09:48;;;;;;;8.68;3.30;;;19.50;99.90;;;;;;6160634;23;20152;-83
2023/07/02 09:12:28;;;;;;;7.22;3.70;;;19.20;99.90;;;;;;6161080;23;20036;-84
2023/07/02 09:14:59;;;;;;;8.50;3.50;;;19.00;99.90;;;;;;6165412;23;20020;-84
2023/07/02 09:17:32;;;;;;;8.32;3.28;;;18.80;99.90;;;;;;6164058;23;20025;-84
2023/07/02 09:20:04;;;;;;;7.50;3.60;;;18.90;99.90;;;;;;6161500;23;20517;-85
2023/07/02 09:22:30;;;;;;;8.20;3.70;;;19.00;99.90;;;;;;6160507;23;20040;-84
2023/07/02 09:24:58;;;;;;;7.93;3.20;;;19.10;99.90;;;;;;6160719;23;20065;-83
2023/07/02 09:27:38;;;;;;;7.80;3.75;;;18.90;99.90;;;;;;6159215;23;20040;-86
2023/07/02 09:30:15;;;;;;;8.73;3.88;;;18.90;99.90;;;;;;6134377;23;20025;-84
2023/07/02 09:32:44;;;;;;;8.43;3.85;;;18.70;99.90;;;;;;6160057;23;20051;-84
2023/07/02 09:35:10;;;;;;;6.88;3.75;;;18.60;99.90;;;;;;6134565;23;20013;-85
2023/07/02 09:37:37;;;;;;;6.80;3.97;;;18.50;99.90;;;;;;6160483;23;20024;-86
2023/07/02 09:40:07;;;;;;;10.35;4.00;;;18.50;99.90;;;;;;6162738;23;20099;-85
2023/07/02 09:42:34;;;;;;;8.65;4.15;;;18.70;99.90;;;;;;6182845;23;20084;-85
2023/07/02 09:45:02;;;;;;;8.63;4.55;;;18.70;99.90;;;;;;6161547;23;20017;-84
2023/07/02 09:47:29;;;;;;;9.10;4.47;;;18.50;99.90;;;;;;6161548;23;20017;-85
2023/07/02 09:49:59;;;;;;;10.95;5.15;;;18.50;99.90;;;;;;6161286;23;20025;-84
2023/07/02 09:52:27;;;;;;;11.60;5.40;;;18.50;99.90;;;;;;6161818;23;20039;-85
2023/07/02 09:54:53;;;;;;;10.35;4.55;;;18.70;99.90;;;;;;6159848;23;20010;-85
2023/07/02 09:57:19;;;;;;;9.70;4.15;;;18.90;99.90;;;;;;6161104;23;20024;-83
2023/07/02 09:59:45;;;;;;;15.70;5.00;;;19.10;99.90;;;;;;6161996;23;20017;-84
2023/07/02 10:02:12;;;;;;;11.98;4.78;;;19.20;99.90;;;;;;6160198;23;20028;-83
2023/07/02 10:04:46;;;;;;;8.40;4.30;;;19.40;99.90;;;;;;6162924;23;20021;-84
2023/07/02 10:07:12;;;;;;;13.02;4.90;;;19.60;99.90;;;;;;6161971;23;20088;-85
2023/07/02 10:09:46;;;;;;;7.63;4.28;;;19.50;99.90;;;;;;6161179;23;20010;-83
2023/07/02 10:12:20;;;;;;;10.18;4.55;;;19.50;99.90;;;;;;6160257;23;20346;-84
2023/07/02 10:14:48;;;;;;;9.10;4.40;;;19.50;99.90;;;;;;6159620;23;20017;-85
2023/07/02 10:17:54;;;;;;;7.00;3.85;;;19.60;99.90;;;;;;6155319;23;20061;-86
2023/07/02 10:20:32;;;;;;;10.05;4.10;;;19.40;99.90;;;;;;6142988;23;20051;-86
2023/07/02 10:22:58;;;;;;;10.05;4.60;;;19.20;99.90;;;;;;6132532;23;20014;-85
2023/07/02 10:25:26;;;;;;;9.80;5.03;;;19.00;99.90;;;;;;6157363;23;20063;-87
2023/07/02 10:27:51;;;;;;;9.45;4.68;;;18.80;99.90;;;;;;6156435;23;20484;-86
2023/07/02 10:30:17;;;;;;;11.73;4.63;;;18.50;99.90;;;;;;6158358;23;20013;-87
2023/07/02 10:32:43;;;;;;;9.85;5.03;;;18.30;99.90;;;;;;6159670;23;20065;-85
2023/07/02 10:35:19;;;;;;;15.18;4.68;;;18.10;99.90;;;;;;6184507;23;20009;-87
2023/07/02 10:37:45;;;;;;;11.73;5.00;;;17.90;99.90;;;;;;6166415;23;20438;-85
2023/07/02 10:40:12;;;;;;;11.35;5.55;;;17.90;99.90;;;;;;6164578;23;20024;-86
2023/07/02 10:42:51;;;;;;;11.38;5.00;;;18.00;99.90;;;;;;6161153;23;20017;-85
2023/07/02 10:45:19;;;;;;;8.75;4.60;;;18.10;99.90;;;;;;6158113;23;20056;-85
2023/07/02 10:47:45;;;;;;;11.93;5.05;;;18.20;99.90;;;;;;6157062;23;20060;-86
2023/07/02 10:50:18;;;;;;;12.27;4.68;;;18.30;99.90;;;;;;6132422;23;20022;-84
2023/07/02 10:52:44;;;;;;;9.68;4.07;;;18.40;99.90;;;;;;6131504;23;20434;-86
2023/07/02 10:55:10;;;;;;;13.23;4.72;;;18.70;99.90;;;;;;6157955;23;20021;-86
2023/07/02 10:57:36;;;;;;;12.07;4.30;;;18.90;99.90;;;;;;6132788;23;20016;-85
2023/07/02 11:00:08;;;;;;;9.77;4.90;;;19.20;99.90;;;;;;6155275;23;20028;-86
2023/07/02 11:02:37;;;;;;;12.13;4.57;;;19.30;99.90;;;;;;6153670;23;20045;-86
2023/07/02 11:05:14;;;;;;;9.57;4.30;;;19.30;99.90;;;;;;6155691;23;20017;-86
2023/07/02 11:07:44;;;;;;;12.50;4.43;;;19.40;99.90;;;;;;6154806;23;20020;-85
2023/07/02 11:10:16;;;;;;;12.88;5.00;;;19.40;99.90;;;;;;6131822;23;20013;-86
2023/07/02 11:12:42;;;;;;;6.32;4.22;;;19.80;99.90;;;;;;6154323;23;20017;-87
2023/07/02 11:15:35;;;;;;;7.32;4.30;;;19.90;99.90;;;;;;6138389;23;20009;-87
2023/07/02 11:18:12;;;;;;;10.80;4.93;;;20.00;99.90;;;;;;6157893;23;20014;-86
2023/07/02 11:20:39;;;;;;;10.95;4.40;;;19.80;99.90;;;;;;6131970;23;20024;-85
2023/07/02 11:23:23;;;;;;;10.27;4.53;;;19.70;99.90;;;;;;6156420;23;20068;-86
2023/07/02 11:25:58;;;;;;;;;;;19.60;99.90;;;;;;6157583;23;20021;-87
2023/07/02 11:28:25;;;;;;;7.53;4.55;;;19.60;99.90;;;;;;6131480;23;19961;-85
2023/07/02 11:30:51;;;;;;;7.15;3.97;;;19.60;99.90;;;;;;6157537;23;20019;-85
2023/07/02 11:33:38;;;;;;;7.32;3.65;;;19.50;99.90;;;;;;6157288;23;20025;-84
2023/07/02 11:36:19;;;;;;;8.35;3.38;;;19.40;99.90;;;;;;6157738;23;20020;-85
2023/07/02 11:38:45;;;;;;;9.70;3.75;;;19.40;99.90;;;;;;6160027;23;20152;-84
2023/07/02 11:41:12;;;;;;;7.57;3.45;;;19.30;99.90;;;;;;6159337;23;20465;-84
2023/07/02 11:43:44;;;;;;;7.80;3.47;;;19.20;99.90;;;;;;6132082;23;20065;-86
2023/07/02 11:46:12;;;;;;;4.47;3.30;;;19.10;99.90;;;;;;6157659;23;20349;-86
2023/07/02 11:48:38;;;;;;;6.32;3.22;;;19.30;99.90;;;;;;6148204;23;20052;-88
2023/07/02 11:51:05;;;;;;;6.95;3.60;;;19.50;99.90;;;;;;6176468;23;20461;-84
2023/07/02 11:53:31;;;;;;;5.97;3.97;;;19.50;99.90;;;;;;6175322;23;20031;-88
2023/07/02 11:55:56;;;;;;;5.82;3.40;;;19.60;99.40;;;;;;6168896;23;20014;-85
2023/07/02 11:58:22;;;;;;;6.30;3.60;;;19.60;98.90;;;;;;6155351;23;20017;-85
2023/07/02 12:00:48;;;;;;;9.20;3.33;;;19.60;99.30;;;;;;6131201;23;20018;-85
2023/07/02 12:03:21;;;;;;;8.15;3.30;;;19.50;98.50;;;;;;6155751;23;20024;-86
2023/07/02 12:06:41;;;;;;;7.68;3.55;;;19.40;98.40;;;;;;6157590;23;20017;-86
2023/07/02 12:09:09;;;;;;;7.10;3.42;;;19.20;95.20;;;;;;6209457;22;20082;-33
2023/07/02 12:11:35;;;;;;;7.55;3.15;;;19.20;97.90;;;;;;6238691;23;20436;-33
2023/07/02 12:14:01;;;;;;;7.13;2.83;;;19.20;97.90;;;;;;6213352;23;20016;-33
2023/07/02 12:16:27;;;;;;;6.35;3.10;;;19.20;98.00;;;;;;6238943;23;20113;-34
2023/07/02 12:18:52;;;;;;;7.28;3.30;;;19.70;99.90;;;;;;6234579;23;20030;-34
2023/07/02 12:21:19;;;;;;;5.72;3.17;;;20.30;99.90;;;;;;6239893;23;20451;-33
2023/07/02 12:23:44;;;;;;;7.68;3.30;;;20.30;98.00;;;;;;6214289;23;20048;-33
2023/07/02 12:26:10;;;;;;;6.28;3.20;;;20.20;95.50;;;;;;6241161;23;20021;-33
2023/07/02 12:28:39;;;;;;;6.97;3.30;;;20.10;94.50;;;;;;6240381;23;20083;-34
2023/07/02 12:31:05;;;;;;;6.93;3.00;;;20.20;93.20;;;;;;6240102;23;20347;-33
2023/07/02 12:33:30;;;;;;;6.68;2.40;;;20.70;90.00;;;;;;6242471;22;20023;-33
2023/07/02 12:35:56;;;;;;;8.50;3.40;;;20.70;90.20;;;;;;6215139;23;20016;-34
2023/07/02 12:38:22;;;;;;;6.85;4.00;;;20.40;85.60;;;;;;6241617;23;20016;-35
2023/07/02 12:40:48;;;;;;;4.88;2.90;;;20.20;87.00;;;;;;6215193;23;20044;-34
2023/07/02 12:43:15;;;;;;;8.43;3.55;;;20.10;90.00;;;;;;6214698;23;20469;-35
2023/07/02 12:45:41;;;;;;;6.53;2.85;;;20.00;90.40;;;;;;6215126;23;20070;-34